Industrial Hobart — 4RBG — position and weather

sailwx.info

Track history (hours):
 
Tides and Currents Weather Stations Pressure Air Temp Water Temp Dewpoint Dewpoint Depression Visibility Wind Speed Wind Dir Waves Ship Positions

Industrial Hobart

Last reported at 2017-Dec-13 19:50 UTC. Time now 2018-Jan-18 17:34 UTC.
Position N 01°13' E 103°56'.
Warning: this ship's position is 35 days out of date.

Length 118 m; draft 6.4 m.

Type: Ship. MMSI: 417222320.

Date/timePositionNaut miles runAvg speedWind from/ knotsBaromVisibWave heightAir tempDewpointWater temp
2017-Dec-13 19:50N 01°13' E 103°56'412.3
2017-Dec-13 19:30N 01°12' E 103°53'612.2
2017-Dec-13 19:00N 01°09' E 103°47'612.5
2017-Dec-13 18:30N 01°04' E 103°43'610.7
2017-Dec-13 17:59N 01°03' E 103°37'612.9
2017-Dec-13 17:30N 01°06' E 103°32'612.9
2017-Dec-13 17:00N 01°09' E 103°26'  
2017-Dec-11 04:54N 01°23' E 103°16'715.0
2017-Dec-11 04:25N 01°18' E 103°22'715.0
2017-Dec-11 03:56N 01°14' E 103°28'715.3
2017-Dec-11 03:30N 01°12' E 103°34'715.1
2017-Dec-11 03:00N 01°10' E 103°41'712.6
2017-Dec-11 02:29N 01°10' E 103°48'3 6.6
2017-Dec-11 02:00N 01°14' E 103°49'1 2.1
2017-Dec-11 01:26N 01°15' E 103°49'0 0.1
2017-Dec-11 00:50N 01°15' E 103°49'0 0.0
2017-Dec-11 00:26N 01°15' E 103°49'0 0.1
2017-Dec-10 23:56N 01°15' E 103°49'0 0.0
2017-Dec-10 23:26N 01°15' E 103°49'0 0.1
2017-Dec-10 22:56N 01°15' E 103°49'0 0.0
2017-Dec-10 22:29N 01°15' E 103°49'0 0.2
2017-Dec-10 21:41N 01°15' E 103°49'0 0.0
2017-Dec-10 20:50N 01°15' E 103°49'0 0.2
2017-Dec-10 20:26N 01°15' E 103°49'0 0.1
2017-Dec-10 19:56N 01°15' E 103°49'0 0.0
2017-Dec-10 19:20N 01°15' E 103°49'0 0.2
2017-Dec-10 19:00N 01°15' E 103°49'2 3.9
2017-Dec-10 18:30N 01°15' E 103°47'5 9.1
2017-Dec-10 18:00N 01°18' E 103°44'0 0.1
2017-Dec-10 17:30N 01°18' E 103°44'0 0.0
2017-Dec-10 16:59N 01°18' E 103°44'0 0.0
2017-Dec-10 16:30N 01°18' E 103°44'0 0.0
2017-Dec-10 16:00N 01°18' E 103°44'0 0.0
2017-Dec-10 15:30N 01°18' E 103°44'0 0.0
2017-Dec-10 14:58N 01°18' E 103°44'0 0.0
2017-Dec-10 14:30N 01°18' E 103°44'0 0.0
2017-Dec-10 13:59N 01°18' E 103°44'0 0.0
2017-Dec-10 13:30N 01°18' E 103°44'0 0.0
2017-Dec-10 12:59N 01°18' E 103°44'0 0.0
2017-Dec-10 12:30N 01°18' E 103°44'0 0.0
2017-Dec-10 11:57N 01°18' E 103°44'0 0.0
2017-Dec-10 11:30N 01°18' E 103°44'0 0.0
2017-Dec-10 10:57N 01°18' E 103°44'0 0.0
2017-Dec-10 10:30N 01°18' E 103°44'0 0.0
2017-Dec-10 10:00N 01°18' E 103°44'0 0.0
2017-Dec-10 09:30N 01°18' E 103°44'0 0.0
2017-Dec-10 08:59N 01°18' E 103°44'0 0.0
2017-Dec-10 08:30N 01°18' E 103°44'0 0.0
2017-Dec-10 07:59N 01°18' E 103°44'0 0.0
2017-Dec-10 07:28N 01°18' E 103°44'0 0.0
2017-Dec-10 07:00N 01°18' E 103°44'0 0.0
2017-Dec-10 06:30N 01°18' E 103°44'0 0.0
2017-Dec-10 06:00N 01°18' E 103°44'0 0.0
2017-Dec-10 05:30N 01°18' E 103°44'0 0.0
2017-Dec-10 05:00N 01°18' E 103°44'0 0.0
2017-Dec-10 04:30N 01°18' E 103°44'0 0.0
2017-Dec-10 03:56N 01°18' E 103°44'0 0.0
2017-Dec-10 03:30N 01°18' E 103°44'0 0.0
2017-Dec-10 03:00N 01°18' E 103°44'0 0.0
2017-Dec-10 02:30N 01°18' E 103°44'0 0.0
2017-Dec-10 02:00N 01°18' E 103°44'0 0.0
2017-Dec-10 01:30N 01°18' E 103°44'0 0.0
2017-Dec-10 01:00N 01°18' E 103°44'0 0.0
2017-Dec-10 00:30N 01°18' E 103°44'0 0.0
2017-Dec-10 00:00N 01°18' E 103°44'0 0.0
2017-Dec-09 23:30N 01°18' E 103°44'0 0.0
2017-Dec-09 23:00N 01°18' E 103°44'1 2.4
2017-Dec-09 22:30N 01°17' E 103°44'3 6.6
2017-Dec-09 22:00N 01°15' E 103°47'1 2.8
2017-Dec-09 21:30N 01°15' E 103°48'0 0.1
2017-Dec-09 20:54N 01°15' E 103°48'0 0.1
2017-Dec-09 20:27N 01°15' E 103°48'0 0.0
2017-Dec-09 19:54N 01°15' E 103°48'0 0.0
2017-Dec-09 19:27N 01°15' E 103°48'0 0.1
2017-Dec-09 19:00N 01°15' E 103°48'0 0.0
2017-Dec-09 18:30N 01°15' E 103°48'0 0.1
2017-Dec-09 18:00N 01°15' E 103°48'3 6.6
2017-Dec-09 17:30N 01°15' E 103°45'611.6
2017-Dec-09 16:59N 01°12' E 103°40'3 6.8
2017-Dec-09 16:30N 01°13' E 103°36'2 3.5
2017-Dec-09 15:59N 01°12' E 103°35'4 7.3
2017-Dec-09 15:30N 01°11' E 103°31'4 8.2
2017-Dec-09 15:00N 01°10' E 103°27'  
Track history (hours):
 
Tides and Currents Weather Stations Pressure Air Temp Water Temp Dewpoint Dewpoint Depression Visibility Wind Speed Wind Dir Waves Ship Positions

Industrial Hobart

Last reported at 2017-Dec-13 19:50 UTC. Time now 2018-Jan-18 17:34 UTC.
Position N 01°13' E 103°56'.
Warning: this ship's position is 35 days out of date.

Length 118 m; draft 6.4 m.

Type: Ship. MMSI: 417222320.

Date/timePositionNaut miles runAvg speedWind from/ knotsBaromVisibWave heightAir tempDewpointWater temp
2017-Dec-13 19:50N 01°13' E 103°56'412.3
2017-Dec-13 19:30N 01°12' E 103°53'612.2
2017-Dec-13 19:00N 01°09' E 103°47'612.5
2017-Dec-13 18:30N 01°04' E 103°43'610.7
2017-Dec-13 17:59N 01°03' E 103°37'612.9
2017-Dec-13 17:30N 01°06' E 103°32'612.9
2017-Dec-13 17:00N 01°09' E 103°26'  
2017-Dec-11 04:54N 01°23' E 103°16'715.0
2017-Dec-11 04:25N 01°18' E 103°22'715.0
2017-Dec-11 03:56N 01°14' E 103°28'715.3
2017-Dec-11 03:30N 01°12' E 103°34'715.1
2017-Dec-11 03:00N 01°10' E 103°41'712.6
2017-Dec-11 02:29N 01°10' E 103°48'3 6.6
2017-Dec-11 02:00N 01°14' E 103°49'1 2.1
2017-Dec-11 01:26N 01°15' E 103°49'0 0.1
2017-Dec-11 00:50N 01°15' E 103°49'0 0.0
2017-Dec-11 00:26N 01°15' E 103°49'0 0.1
2017-Dec-10 23:56N 01°15' E 103°49'0 0.0
2017-Dec-10 23:26N 01°15' E 103°49'0 0.1
2017-Dec-10 22:56N 01°15' E 103°49'0 0.0
2017-Dec-10 22:29N 01°15' E 103°49'0 0.2
2017-Dec-10 21:41N 01°15' E 103°49'0 0.0
2017-Dec-10 20:50N 01°15' E 103°49'0 0.2
2017-Dec-10 20:26N 01°15' E 103°49'0 0.1
2017-Dec-10 19:56N 01°15' E 103°49'0 0.0
2017-Dec-10 19:20N 01°15' E 103°49'0 0.2
2017-Dec-10 19:00N 01°15' E 103°49'2 3.9
2017-Dec-10 18:30N 01°15' E 103°47'5 9.1
2017-Dec-10 18:00N 01°18' E 103°44'0 0.1
2017-Dec-10 17:30N 01°18' E 103°44'0 0.0
2017-Dec-10 16:59N 01°18' E 103°44'0 0.0
2017-Dec-10 16:30N 01°18' E 103°44'0 0.0
2017-Dec-10 16:00N 01°18' E 103°44'0 0.0
2017-Dec-10 15:30N 01°18' E 103°44'0 0.0
2017-Dec-10 14:58N 01°18' E 103°44'0 0.0
2017-Dec-10 14:30N 01°18' E 103°44'0 0.0
2017-Dec-10 13:59N 01°18' E 103°44'0 0.0
2017-Dec-10 13:30N 01°18' E 103°44'0 0.0
2017-Dec-10 12:59N 01°18' E 103°44'0 0.0
2017-Dec-10 12:30N 01°18' E 103°44'0 0.0
2017-Dec-10 11:57N 01°18' E 103°44'0 0.0
2017-Dec-10 11:30N 01°18' E 103°44'0 0.0
2017-Dec-10 10:57N 01°18' E 103°44'0 0.0
2017-Dec-10 10:30N 01°18' E 103°44'0 0.0
2017-Dec-10 10:00N 01°18' E 103°44'0 0.0
2017-Dec-10 09:30N 01°18' E 103°44'0 0.0
2017-Dec-10 08:59N 01°18' E 103°44'0 0.0
2017-Dec-10 08:30N 01°18' E 103°44'0 0.0
2017-Dec-10 07:59N 01°18' E 103°44'0 0.0
2017-Dec-10 07:28N 01°18' E 103°44'0 0.0
2017-Dec-10 07:00N 01°18' E 103°44'0 0.0
2017-Dec-10 06:30N 01°18' E 103°44'0 0.0
2017-Dec-10 06:00N 01°18' E 103°44'0 0.0
2017-Dec-10 05:30N 01°18' E 103°44'0 0.0
2017-Dec-10 05:00N 01°18' E 103°44'0 0.0
2017-Dec-10 04:30N 01°18' E 103°44'0 0.0
2017-Dec-10 03:56N 01°18' E 103°44'0 0.0
2017-Dec-10 03:30N 01°18' E 103°44'0 0.0
2017-Dec-10 03:00N 01°18' E 103°44'0 0.0
2017-Dec-10 02:30N 01°18' E 103°44'0 0.0
2017-Dec-10 02:00N 01°18' E 103°44'0 0.0
2017-Dec-10 01:30N 01°18' E 103°44'0 0.0
2017-Dec-10 01:00N 01°18' E 103°44'0 0.0
2017-Dec-10 00:30N 01°18' E 103°44'0 0.0
2017-Dec-10 00:00N 01°18' E 103°44'0 0.0
2017-Dec-09 23:30N 01°18' E 103°44'0 0.0
2017-Dec-09 23:00N 01°18' E 103°44'1 2.4
2017-Dec-09 22:30N 01°17' E 103°44'3 6.6
2017-Dec-09 22:00N 01°15' E 103°47'1 2.8
2017-Dec-09 21:30N 01°15' E 103°48'0 0.1
2017-Dec-09 20:54N 01°15' E 103°48'0 0.1
2017-Dec-09 20:27N 01°15' E 103°48'0 0.0
2017-Dec-09 19:54N 01°15' E 103°48'0 0.0
2017-Dec-09 19:27N 01°15' E 103°48'0 0.1
2017-Dec-09 19:00N 01°15' E 103°48'0 0.0
2017-Dec-09 18:30N 01°15' E 103°48'0 0.1
2017-Dec-09 18:00N 01°15' E 103°48'3 6.6
2017-Dec-09 17:30N 01°15' E 103°45'611.6
2017-Dec-09 16:59N 01°12' E 103°40'3 6.8
2017-Dec-09 16:30N 01°13' E 103°36'2 3.5
2017-Dec-09 15:59N 01°12' E 103°35'4 7.3
2017-Dec-09 15:30N 01°11' E 103°31'4 8.2
2017-Dec-09 15:00N 01°10' E 103°27'  

Dump ship's entire track history